createdAt,value
2023-02-22T00:03:37.055Z,4.30
2023-02-22T00:13:41.105Z,4.20
2023-02-22T00:23:46.251Z,4.10
2023-02-22T00:33:48.148Z,4.00
2023-02-22T00:43:50.085Z,3.90
2023-02-22T00:53:52.009Z,3.60
2023-02-22T01:03:54.107Z,3.40
2023-02-22T01:13:56.118Z,3.30
2023-02-22T01:23:58.033Z,3.10
2023-02-22T01:34:01.086Z,3.00
2023-02-22T01:44:26.823Z,2.80
2023-02-22T01:54:34.916Z,2.70
2023-02-22T02:04:38.131Z,2.90
2023-02-22T02:14:42.317Z,2.90
2023-02-22T02:25:05.340Z,2.90
2023-02-22T02:35:25.339Z,2.90
2023-02-22T02:45:33.299Z,2.80
2023-02-22T02:55:37.044Z,2.80
2023-02-22T03:06:00.581Z,2.80
2023-02-22T03:16:11.726Z,3.10
2023-02-22T03:26:21.658Z,3.50
2023-02-22T03:36:34.049Z,3.50
2023-02-22T03:46:38.929Z,3.40
2023-02-22T03:56:47.885Z,3.40
2023-02-22T04:17:23.739Z,3.30
2023-02-22T04:27:25.885Z,3.10
2023-02-22T04:37:30.809Z,3.00
2023-02-22T04:47:32.880Z,3.00
2023-02-22T04:57:35.128Z,2.80
2023-02-22T05:07:37.935Z,2.90
2023-02-22T05:17:39.770Z,2.90
2023-02-22T05:27:41.913Z,2.70
2023-02-22T05:37:43.935Z,2.60
2023-02-22T05:47:46.416Z,2.40
2023-02-22T05:57:54.603Z,2.50
2023-02-22T06:07:59.149Z,2.50
2023-02-22T06:18:01.532Z,2.50
2023-02-22T06:28:04.163Z,2.40
2023-02-22T06:38:06.032Z,2.50
2023-02-22T06:48:08.001Z,3.00
2023-02-22T06:58:09.852Z,3.70
2023-02-22T07:08:15.631Z,3.90
2023-02-22T07:18:30.919Z,4.60
2023-02-22T07:28:33.247Z,5.10
2023-02-22T07:38:50.045Z,6.40
2023-02-22T07:48:53.455Z,6.30
2023-02-22T07:58:55.468Z,6.40
2023-02-22T08:08:58.880Z,6.30
2023-02-22T08:19:00.751Z,6.10
2023-02-22T08:29:02.621Z,6.70
2023-02-22T08:39:04.502Z,6.70
2023-02-22T08:49:07.273Z,6.50
2023-02-22T08:59:12.343Z,6.90
2023-02-22T09:09:21.037Z,6.90
2023-02-22T09:19:41.316Z,6.90
2023-02-22T09:29:47.599Z,7.00
2023-02-22T09:39:49.644Z,6.80
2023-02-22T09:50:00.437Z,7.10
2023-02-22T10:00:12.681Z,7.50
2023-02-22T10:10:19.223Z,8.20
2023-02-22T10:20:36.025Z,7.50
2023-02-22T10:30:43.713Z,7.90
2023-02-22T10:40:54.853Z,8.10
2023-02-22T10:51:02.528Z,8.40
2023-02-22T11:01:25.370Z,8.60
2023-02-22T11:11:27.825Z,8.00
2023-02-22T11:21:32.060Z,8.00
2023-02-22T11:31:43.481Z,8.00
2023-02-22T11:41:45.569Z,8.00
2023-02-22T11:51:59.415Z,7.90
2023-02-22T12:02:24.883Z,8.00
2023-02-22T12:13:16.222Z,8.30
2023-02-22T12:23:21.776Z,8.50
2023-02-22T12:33:29.671Z,8.60
2023-02-22T12:43:43.422Z,8.60
2023-02-22T12:53:55.562Z,8.40
2023-02-22T13:04:03.811Z,8.30
2023-02-22T13:14:52.463Z,8.50
2023-02-22T13:25:10.691Z,8.40
2023-02-22T13:35:19.610Z,8.30
2023-02-22T13:45:30.261Z,8.30
2023-02-22T13:55:34.546Z,8.30
2023-02-22T14:05:42.597Z,8.40
2023-02-22T14:16:00.093Z,8.60
2023-02-22T14:26:32.002Z,8.40
2023-02-22T14:36:57.968Z,8.50
2023-02-22T14:47:05.968Z,8.40
2023-02-22T14:57:34.732Z,8.20
2023-02-22T15:07:36.552Z,8.20
2023-02-22T15:17:38.557Z,8.10
2023-02-22T15:27:44.055Z,8.00
2023-02-22T15:37:47.479Z,7.80
2023-02-22T15:47:50.135Z,7.60
2023-02-22T15:57:52.355Z,7.40
2023-02-22T16:07:54.216Z,7.20
2023-02-22T16:18:01.944Z,7.10
2023-02-22T16:28:29.148Z,6.90
2023-02-22T16:38:33.463Z,6.60
2023-02-22T16:48:35.274Z,6.50
2023-02-22T16:58:39.664Z,6.20
2023-02-22T17:08:44.699Z,6.10
2023-02-22T17:18:47.075Z,6.10
2023-02-22T17:28:48.899Z,5.90
2023-02-22T17:38:50.808Z,6.00
2023-02-22T17:48:53.238Z,6.00
2023-02-22T17:58:55.704Z,5.90
2023-02-22T18:08:59.640Z,5.70
2023-02-22T18:19:01.386Z,5.70
2023-02-22T18:29:03.836Z,5.70
2023-02-22T18:39:05.848Z,5.60
2023-02-22T18:49:10.624Z,5.60
2023-02-22T18:59:12.921Z,5.50
2023-02-22T19:09:14.763Z,5.40
2023-02-22T19:19:17.406Z,5.30
2023-02-22T19:29:20.488Z,5.20
2023-02-22T19:49:34.291Z,5.00
2023-02-22T19:59:36.185Z,5.00
2023-02-22T20:09:38.162Z,5.00
2023-02-22T20:19:40.092Z,4.80
2023-02-22T20:29:42.134Z,4.80
2023-02-22T20:39:44.072Z,4.80
2023-02-22T20:49:45.928Z,4.70
2023-02-22T20:59:47.721Z,4.60
2023-02-22T21:09:50.068Z,4.50
2023-02-22T21:19:51.876Z,4.30
2023-02-22T21:29:55.476Z,4.00
2023-02-22T21:39:57.412Z,3.90
2023-02-22T21:49:59.301Z,3.60
2023-02-22T22:00:01.596Z,3.40
2023-02-22T22:10:03.698Z,3.40
2023-02-22T22:20:06.157Z,3.30
2023-02-22T22:30:08.638Z,3.20
2023-02-22T22:40:12.118Z,3.10
2023-02-22T22:50:16.091Z,2.90
2023-02-22T23:00:18.196Z,2.70
2023-02-22T23:10:20.130Z,2.50
2023-02-22T23:20:23.637Z,2.40
2023-02-22T23:30:26.501Z,2.30
2023-02-22T23:40:28.585Z,2.10
2023-02-22T23:50:31.473Z,2.00
